sensor_id;sensor_type;location;lat;lon;timestamp;temperature;humidity
20700;DHT22;10511;51.232;9.420;2023-03-30T00:00:26;11.30;99.90
20700;DHT22;10511;51.232;9.420;2023-03-30T00:02:53;11.30;99.90
20700;DHT22;10511;51.232;9.420;2023-03-30T00:05:20;11.40;99.90
20700;DHT22;10511;51.232;9.420;2023-03-30T00:07:48;11.30;99.90
20700;DHT22;10511;51.232;9.420;2023-03-30T00:10:16;11.30;99.90
20700;DHT22;10511;51.232;9.420;2023-03-30T00:12:44;11.30;99.90
20700;DHT22;10511;51.232;9.420;2023-03-30T00:15:13;11.30;99.90
20700;DHT22;10511;51.232;9.420;2023-03-30T00:17:43;11.30;99.90
20700;DHT22;10511;51.232;9.420;2023-03-30T00:20:11;11.30;99.90
20700;DHT22;10511;51.232;9.420;2023-03-30T00:22:39;11.30;99.90
20700;DHT22;10511;51.232;9.420;2023-03-30T00:25:08;11.30;99.90
20700;DHT22;10511;51.232;9.420;2023-03-30T00:27:35;11.30;99.90
20700;DHT22;10511;51.232;9.420;2023-03-30T00:30:02;11.20;99.90
20700;DHT22;10511;51.232;9.420;2023-03-30T00:32:29;11.20;99.90
20700;DHT22;10511;51.232;9.420;2023-03-30T00:34:57;11.20;99.90
20700;DHT22;10511;51.232;9.420;2023-03-30T00:37:24;11.20;99.90
20700;DHT22;10511;51.232;9.420;2023-03-30T00:39:52;11.20;99.90
20700;DHT22;10511;51.232;9.420;2023-03-30T00:42:19;11.20;99.90
20700;DHT22;10511;51.232;9.420;2023-03-30T00:45:15;11.10;99.90
20700;DHT22;10511;51.232;9.420;2023-03-30T00:47:45;11.20;99.90
20700;DHT22;10511;51.232;9.420;2023-03-30T00:50:15;11.30;99.90
20700;DHT22;10511;51.232;9.420;2023-03-30T00:52:47;11.20;99.90
20700;DHT22;10511;51.232;9.420;2023-03-30T00:55:18;11.10;99.90
20700;DHT22;10511;51.232;9.420;2023-03-30T00:57:46;11.10;99.90
20700;DHT22;10511;51.232;9.420;2023-03-30T01:00:16;11.00;99.90
20700;DHT22;10511;51.232;9.420;2023-03-30T01:02:46;11.00;99.90
20700;DHT22;10511;51.232;9.420;2023-03-30T01:05:16;11.00;99.90
20700;DHT22;10511;51.232;9.420;2023-03-30T01:07:43;11.00;99.90
20700;DHT22;10511;51.232;9.420;2023-03-30T01:10:14;11.00;99.90
20700;DHT22;10511;51.232;9.420;2023-03-30T01:12:42;11.10;99.90
20700;DHT22;10511;51.232;9.420;2023-03-30T01:15:10;11.00;99.90
20700;DHT22;10511;51.232;9.420;2023-03-30T01:17:46;11.00;99.90
20700;DHT22;10511;51.232;9.420;2023-03-30T01:20:42;11.00;99.90
20700;DHT22;10511;51.232;9.420;2023-03-30T01:23:36;10.90;99.90
20700;DHT22;10511;51.232;9.420;2023-03-30T01:26:30;11.00;99.90
20700;DHT22;10511;51.232;9.420;2023-03-30T01:29:08;10.90;99.90
20700;DHT22;10511;51.232;9.420;2023-03-30T01:32:01;10.90;99.90
20700;DHT22;10511;51.232;9.420;2023-03-30T01:34:53;10.80;99.90
20700;DHT22;10511;51.232;9.420;2023-03-30T01:37:45;10.80;99.90
20700;DHT22;10511;51.232;9.420;2023-03-30T01:40:20;10.80;99.90
20700;DHT22;10511;51.232;9.420;2023-03-30T01:42:54;10.80;99.90
20700;DHT22;10511;51.232;9.420;2023-03-30T01:45:29;10.70;99.90
20700;DHT22;10511;51.232;9.420;2023-03-30T01:48:06;10.70;99.90
20700;DHT22;10511;51.232;9.420;2023-03-30T01:50:37;10.70;99.90
20700;DHT22;10511;51.232;9.420;2023-03-30T01:53:12;10.60;99.90
20700;DHT22;10511;51.232;9.420;2023-03-30T01:55:46;10.60;99.90
20700;DHT22;10511;51.232;9.420;2023-03-30T01:58:18;10.60;99.90
20700;DHT22;10511;51.232;9.420;2023-03-30T02:00:47;10.60;99.90
20700;DHT22;10511;51.232;9.420;2023-03-30T02:03:17;10.60;99.90
20700;DHT22;10511;51.232;9.420;2023-03-30T02:05:48;10.60;99.90
20700;DHT22;10511;51.232;9.420;2023-03-30T02:08:19;10.60;99.90
20700;DHT22;10511;51.232;9.420;2023-03-30T02:10:50;10.60;99.90
20700;DHT22;10511;51.232;9.420;2023-03-30T02:13:19;10.60;99.90
20700;DHT22;10511;51.232;9.420;2023-03-30T02:15:49;10.60;99.90
20700;DHT22;10511;51.232;9.420;2023-03-30T02:18:17;10.60;99.90
20700;DHT22;10511;51.232;9.420;2023-03-30T02:20:46;10.70;99.90
20700;DHT22;10511;51.232;9.420;2023-03-30T02:23:15;10.70;99.90
20700;DHT22;10511;51.232;9.420;2023-03-30T02:25:44;10.70;99.90
20700;DHT22;10511;51.232;9.420;2023-03-30T02:28:12;10.80;99.90
20700;DHT22;10511;51.232;9.420;2023-03-30T02:30:42;10.70;99.90
20700;DHT22;10511;51.232;9.420;2023-03-30T02:33:16;10.80;99.90
20700;DHT22;10511;51.232;9.420;2023-03-30T02:35:56;10.80;99.90
20700;DHT22;10511;51.232;9.420;2023-03-30T02:38:43;10.80;99.90
20700;DHT22;10511;51.232;9.420;2023-03-30T02:41:21;10.80;99.90
20700;DHT22;10511;51.232;9.420;2023-03-30T02:44:03;10.90;99.90
20700;DHT22;10511;51.232;9.420;2023-03-30T02:46:54;11.00;99.90
20700;DHT22;10511;51.232;9.420;2023-03-30T02:49:26;10.90;99.90
20700;DHT22;10511;51.232;9.420;2023-03-30T02:52:00;11.00;99.90
20700;DHT22;10511;51.232;9.420;2023-03-30T02:54:38;11.00;99.90
20700;DHT22;10511;51.232;9.420;2023-03-30T02:57:11;11.00;99.90
20700;DHT22;10511;51.232;9.420;2023-03-30T02:59:47;11.00;99.90
20700;DHT22;10511;51.232;9.420;2023-03-30T03:02:20;11.00;99.90
20700;DHT22;10511;51.232;9.420;2023-03-30T03:04:49;11.00;99.90
20700;DHT22;10511;51.232;9.420;2023-03-30T03:07:18;11.00;99.90
20700;DHT22;10511;51.232;9.420;2023-03-30T03:09:46;11.00;99.90
20700;DHT22;10511;51.232;9.420;2023-03-30T03:12:13;11.00;99.90
20700;DHT22;10511;51.232;9.420;2023-03-30T03:14:40;11.10;99.90
20700;DHT22;10511;51.232;9.420;2023-03-30T03:17:09;11.20;99.90
20700;DHT22;10511;51.232;9.420;2023-03-30T03:19:38;11.30;99.90
20700;DHT22;10511;51.232;9.420;2023-03-30T03:22:04;11.30;99.90
20700;DHT22;10511;51.232;9.420;2023-03-30T03:24:31;11.30;99.90
20700;DHT22;10511;51.232;9.420;2023-03-30T03:27:03;11.20;99.90
20700;DHT22;10511;51.232;9.420;2023-03-30T03:29:30;11.20;99.90
20700;DHT22;10511;51.232;9.420;2023-03-30T03:31:57;11.20;99.90
20700;DHT22;10511;51.232;9.420;2023-03-30T03:34:25;11.20;99.90
20700;DHT22;10511;51.232;9.420;2023-03-30T03:36:56;11.00;99.90
20700;DHT22;10511;51.232;9.420;2023-03-30T03:39:23;11.00;99.90
20700;DHT22;10511;51.232;9.420;2023-03-30T03:41:50;11.10;99.90
20700;DHT22;10511;51.232;9.420;2023-03-30T03:44:17;11.10;99.90
20700;DHT22;10511;51.232;9.420;2023-03-30T03:46:44;11.10;99.90
20700;DHT22;10511;51.232;9.420;2023-03-30T03:49:11;11.10;99.90
20700;DHT22;10511;51.232;9.420;2023-03-30T03:51:39;11.20;99.90
20700;DHT22;10511;51.232;9.420;2023-03-30T03:54:06;11.20;99.90
20700;DHT22;10511;51.232;9.420;2023-03-30T03:56:33;11.20;99.90
20700;DHT22;10511;51.232;9.420;2023-03-30T03:59:00;11.10;99.90
20700;DHT22;10511;51.232;9.420;2023-03-30T04:01:29;11.10;99.90
20700;DHT22;10511;51.232;9.420;2023-03-30T04:03:56;11.10;99.90
20700;DHT22;10511;51.232;9.420;2023-03-30T04:06:23;11.10;99.90
20700;DHT22;10511;51.232;9.420;2023-03-30T04:08:52;11.10;99.90
20700;DHT22;10511;51.232;9.420;2023-03-30T04:11:19;11.10;99.90
20700;DHT22;10511;51.232;9.420;2023-03-30T04:13:47;11.10;99.90
20700;DHT22;10511;51.232;9.420;2023-03-30T04:16:14;11.00;99.90
20700;DHT22;10511;51.232;9.420;2023-03-30T04:18:41;11.10;99.90
20700;DHT22;10511;51.232;9.420;2023-03-30T04:21:08;11.00;99.90
20700;DHT22;10511;51.232;9.420;2023-03-30T04:23:38;11.00;99.90
20700;DHT22;10511;51.232;9.420;2023-03-30T04:26:11;11.00;99.90
20700;DHT22;10511;51.232;9.420;2023-03-30T04:28:40;11.10;99.90
20700;DHT22;10511;51.232;9.420;2023-03-30T04:31:08;11.10;99.90
20700;DHT22;10511;51.232;9.420;2023-03-30T04:33:38;11.10;99.90
20700;DHT22;10511;51.232;9.420;2023-03-30T04:36:10;11.10;99.90
20700;DHT22;10511;51.232;9.420;2023-03-30T04:38:42;11.10;99.90
20700;DHT22;10511;51.232;9.420;2023-03-30T04:41:25;11.10;99.90
20700;DHT22;10511;51.232;9.420;2023-03-30T04:43:58;11.10;99.90
20700;DHT22;10511;51.232;9.420;2023-03-30T04:46:25;11.10;99.90
20700;DHT22;10511;51.232;9.420;2023-03-30T04:48:52;11.10;99.90
20700;DHT22;10511;51.232;9.420;2023-03-30T04:51:19;11.10;99.90
20700;DHT22;10511;51.232;9.420;2023-03-30T04:53:46;11.10;99.90
20700;DHT22;10511;51.232;9.420;2023-03-30T04:56:13;11.10;99.90
20700;DHT22;10511;51.232;9.420;2023-03-30T04:58:41;11.10;99.90
20700;DHT22;10511;51.232;9.420;2023-03-30T05:01:08;11.10;99.90
20700;DHT22;10511;51.232;9.420;2023-03-30T05:03:35;11.10;99.90
20700;DHT22;10511;51.232;9.420;2023-03-30T05:06:03;11.00;99.90
20700;DHT22;10511;51.232;9.420;2023-03-30T05:08:30;10.90;99.90
20700;DHT22;10511;51.232;9.420;2023-03-30T05:11:00;10.90;99.90
20700;DHT22;10511;51.232;9.420;2023-03-30T05:13:27;10.90;99.90
20700;DHT22;10511;51.232;9.420;2023-03-30T05:15:58;10.90;99.90
20700;DHT22;10511;51.232;9.420;2023-03-30T05:18:25;10.80;99.90
20700;DHT22;10511;51.232;9.420;2023-03-30T05:20:55;10.90;99.90
20700;DHT22;10511;51.232;9.420;2023-03-30T05:23:23;10.80;99.90
20700;DHT22;10511;51.232;9.420;2023-03-30T05:25:50;10.90;99.90
20700;DHT22;10511;51.232;9.420;2023-03-30T05:28:17;10.90;99.90
20700;DHT22;10511;51.232;9.420;2023-03-30T05:30:44;10.80;99.90
20700;DHT22;10511;51.232;9.420;2023-03-30T05:33:13;10.80;99.90
20700;DHT22;10511;51.232;9.420;2023-03-30T05:35:39;10.80;99.90
20700;DHT22;10511;51.232;9.420;2023-03-30T05:38:06;10.80;99.90
20700;DHT22;10511;51.232;9.420;2023-03-30T05:40:33;10.80;99.90
20700;DHT22;10511;51.232;9.420;2023-03-30T05:43:01;10.80;99.90
20700;DHT22;10511;51.232;9.420;2023-03-30T05:45:27;10.80;99.90
20700;DHT22;10511;51.232;9.420;2023-03-30T05:47:54;10.80;99.90
20700;DHT22;10511;51.232;9.420;2023-03-30T05:50:22;10.80;99.90
20700;DHT22;10511;51.232;9.420;2023-03-30T05:52:49;10.80;99.90
20700;DHT22;10511;51.232;9.420;2023-03-30T05:55:16;10.90;99.90
20700;DHT22;10511;51.232;9.420;2023-03-30T05:57:43;11.00;99.90
20700;DHT22;10511;51.232;9.420;2023-03-30T06:00:11;11.00;99.90
20700;DHT22;10511;51.232;9.420;2023-03-30T06:02:40;11.00;99.90
20700;DHT22;10511;51.232;9.420;2023-03-30T06:05:07;11.10;99.90
20700;DHT22;10511;51.232;9.420;2023-03-30T06:07:35;11.20;99.90
20700;DHT22;10511;51.232;9.420;2023-03-30T06:10:03;11.30;99.90
20700;DHT22;10511;51.232;9.420;2023-03-30T06:12:31;11.30;99.90
20700;DHT22;10511;51.232;9.420;2023-03-30T06:14:58;11.30;99.90
20700;DHT22;10511;51.232;9.420;2023-03-30T06:17:27;11.30;99.90
20700;DHT22;10511;51.232;9.420;2023-03-30T06:19:54;11.40;99.90
20700;DHT22;10511;51.232;9.420;2023-03-30T06:22:21;11.40;99.90
20700;DHT22;10511;51.232;9.420;2023-03-30T06:24:49;11.40;99.90
20700;DHT22;10511;51.232;9.420;2023-03-30T06:27:16;11.50;99.90
20700;DHT22;10511;51.232;9.420;2023-03-30T06:29:42;11.50;99.90
20700;DHT22;10511;51.232;9.420;2023-03-30T06:32:09;11.50;99.90
20700;DHT22;10511;51.232;9.420;2023-03-30T06:34:36;11.50;99.90
20700;DHT22;10511;51.232;9.420;2023-03-30T06:37:05;11.40;99.90
20700;DHT22;10511;51.232;9.420;2023-03-30T06:39:33;11.40;99.90
20700;DHT22;10511;51.232;9.420;2023-03-30T06:42:03;11.40;99.90
20700;DHT22;10511;51.232;9.420;2023-03-30T06:44:31;11.40;99.90
20700;DHT22;10511;51.232;9.420;2023-03-30T06:46:58;11.40;99.90
20700;DHT22;10511;51.232;9.420;2023-03-30T06:49:26;11.40;99.90
20700;DHT22;10511;51.232;9.420;2023-03-30T06:51:53;11.40;99.90
20700;DHT22;10511;51.232;9.420;2023-03-30T06:54:20;11.40;99.90
20700;DHT22;10511;51.232;9.420;2023-03-30T06:56:47;11.40;99.90
20700;DHT22;10511;51.232;9.420;2023-03-30T06:59:15;11.40;99.90
20700;DHT22;10511;51.232;9.420;2023-03-30T07:01:42;11.50;99.90
20700;DHT22;10511;51.232;9.420;2023-03-30T07:04:10;11.50;99.90
20700;DHT22;10511;51.232;9.420;2023-03-30T07:06:37;11.50;99.90
20700;DHT22;10511;51.232;9.420;2023-03-30T07:09:03;11.50;99.90
20700;DHT22;10511;51.232;9.420;2023-03-30T07:11:31;11.50;99.90
20700;DHT22;10511;51.232;9.420;2023-03-30T07:13:58;11.60;99.90
20700;DHT22;10511;51.232;9.420;2023-03-30T07:16:27;11.70;99.90
20700;DHT22;10511;51.232;9.420;2023-03-30T07:18:54;11.70;99.90
20700;DHT22;10511;51.232;9.420;2023-03-30T07:21:21;11.80;99.90
20700;DHT22;10511;51.232;9.420;2023-03-30T07:23:48;11.90;99.90
20700;DHT22;10511;51.232;9.420;2023-03-30T07:26:15;11.90;99.90
20700;DHT22;10511;51.232;9.420;2023-03-30T07:28:42;11.80;99.90
20700;DHT22;10511;51.232;9.420;2023-03-30T07:31:11;11.80;99.90
20700;DHT22;10511;51.232;9.420;2023-03-30T07:33:40;11.80;99.90
20700;DHT22;10511;51.232;9.420;2023-03-30T07:36:07;11.70;99.90
20700;DHT22;10511;51.232;9.420;2023-03-30T07:38:34;11.70;99.90
20700;DHT22;10511;51.232;9.420;2023-03-30T07:41:06;11.60;99.90
20700;DHT22;10511;51.232;9.420;2023-03-30T07:43:33;11.60;99.90
20700;DHT22;10511;51.232;9.420;2023-03-30T07:46:00;11.50;99.90
20700;DHT22;10511;51.232;9.420;2023-03-30T07:48:27;11.50;99.90
20700;DHT22;10511;51.232;9.420;2023-03-30T07:51:00;11.60;99.90
20700;DHT22;10511;51.232;9.420;2023-03-30T07:53:28;11.50;99.90
20700;DHT22;10511;51.232;9.420;2023-03-30T07:55:55;11.50;99.90
20700;DHT22;10511;51.232;9.420;2023-03-30T07:58:22;11.60;99.90
20700;DHT22;10511;51.232;9.420;2023-03-30T08:00:48;11.60;99.90
20700;DHT22;10511;51.232;9.420;2023-03-30T08:03:16;11.60;99.90
20700;DHT22;10511;51.232;9.420;2023-03-30T08:05:51;11.60;99.90
20700;DHT22;10511;51.232;9.420;2023-03-30T08:08:19;11.60;99.90
20700;DHT22;10511;51.232;9.420;2023-03-30T08:10:46;11.60;99.90
20700;DHT22;10511;51.232;9.420;2023-03-30T08:13:13;11.70;99.90
20700;DHT22;10511;51.232;9.420;2023-03-30T08:15:40;11.70;99.90
20700;DHT22;10511;51.232;9.420;2023-03-30T08:18:07;11.80;99.90
20700;DHT22;10511;51.232;9.420;2023-03-30T08:20:36;11.80;99.90
20700;DHT22;10511;51.232;9.420;2023-03-30T08:23:03;11.90;99.90
20700;DHT22;10511;51.232;9.420;2023-03-30T08:25:32;11.90;99.90
20700;DHT22;10511;51.232;9.420;2023-03-30T08:27:59;12.00;99.90
20700;DHT22;10511;51.232;9.420;2023-03-30T08:30:27;12.00;99.90
20700;DHT22;10511;51.232;9.420;2023-03-30T08:32:54;12.10;99.90
20700;DHT22;10511;51.232;9.420;2023-03-30T08:35:21;12.10;99.90
20700;DHT22;10511;51.232;9.420;2023-03-30T08:37:48;12.20;99.90
20700;DHT22;10511;51.232;9.420;2023-03-30T08:40:39;12.20;99.90
20700;DHT22;10511;51.232;9.420;2023-03-30T08:43:21;12.30;99.90
20700;DHT22;10511;51.232;9.420;2023-03-30T08:45:51;12.40;99.90
20700;DHT22;10511;51.232;9.420;2023-03-30T08:48:21;12.50;99.90
20700;DHT22;10511;51.232;9.420;2023-03-30T08:50:54;12.60;99.90
20700;DHT22;10511;51.232;9.420;2023-03-30T08:53:22;12.90;99.90
20700;DHT22;10511;51.232;9.420;2023-03-30T08:55:52;13.10;99.90
20700;DHT22;10511;51.232;9.420;2023-03-30T08:58:28;13.30;99.90
20700;DHT22;10511;51.232;9.420;2023-03-30T09:01:04;13.40;99.90
20700;DHT22;10511;51.232;9.420;2023-03-30T09:03:38;13.60;99.90
20700;DHT22;10511;51.232;9.420;2023-03-30T09:06:10;13.80;99.90
20700;DHT22;10511;51.232;9.420;2023-03-30T09:08:39;13.90;99.90
20700;DHT22;10511;51.232;9.420;2023-03-30T09:11:10;13.90;99.90
20700;DHT22;10511;51.232;9.420;2023-03-30T09:13:41;13.90;99.90
20700;DHT22;10511;51.232;9.420;2023-03-30T09:16:15;14.00;99.90
20700;DHT22;10511;51.232;9.420;2023-03-30T09:18:46;14.00;99.90
20700;DHT22;10511;51.232;9.420;2023-03-30T09:21:15;14.10;99.90
20700;DHT22;10511;51.232;9.420;2023-03-30T09:23:43;14.30;99.90
20700;DHT22;10511;51.232;9.420;2023-03-30T09:26:18;14.40;99.90
20700;DHT22;10511;51.232;9.420;2023-03-30T09:28:52;14.60;99.90
20700;DHT22;10511;51.232;9.420;2023-03-30T09:31:27;14.60;99.90
20700;DHT22;10511;51.232;9.420;2023-03-30T09:33:59;14.50;99.90
20700;DHT22;10511;51.232;9.420;2023-03-30T09:36:33;14.40;99.90
20700;DHT22;10511;51.232;9.420;2023-03-30T09:39:08;14.40;99.90
20700;DHT22;10511;51.232;9.420;2023-03-30T09:41:48;14.30;99.90
20700;DHT22;10511;51.232;9.420;2023-03-30T09:44:21;14.30;99.90
20700;DHT22;10511;51.232;9.420;2023-03-30T09:46:54;14.30;99.90
20700;DHT22;10511;51.232;9.420;2023-03-30T09:49:26;14.20;99.90
20700;DHT22;10511;51.232;9.420;2023-03-30T09:51:56;14.30;99.90
20700;DHT22;10511;51.232;9.420;2023-03-30T09:54:33;14.30;99.90
20700;DHT22;10511;51.232;9.420;2023-03-30T09:57:03;14.40;99.90
20700;DHT22;10511;51.232;9.420;2023-03-30T09:59:31;14.40;99.90
20700;DHT22;10511;51.232;9.420;2023-03-30T10:02:13;14.40;99.90
20700;DHT22;10511;51.232;9.420;2023-03-30T10:04:59;14.40;99.90
20700;DHT22;10511;51.232;9.420;2023-03-30T10:07:30;14.50;99.90
20700;DHT22;10511;51.232;9.420;2023-03-30T10:09:58;14.50;99.90
20700;DHT22;10511;51.232;9.420;2023-03-30T10:12:28;14.50;99.90
20700;DHT22;10511;51.232;9.420;2023-03-30T10:14:57;14.60;99.90
20700;DHT22;10511;51.232;9.420;2023-03-30T10:17:26;14.70;99.90
20700;DHT22;10511;51.232;9.420;2023-03-30T10:22:48;14.80;99.90
20700;DHT22;10511;51.232;9.420;2023-03-30T10:25:18;14.80;99.90
20700;DHT22;10511;51.232;9.420;2023-03-30T10:27:50;14.90;99.90
20700;DHT22;10511;51.232;9.420;2023-03-30T10:30:21;15.00;99.90
20700;DHT22;10511;51.232;9.420;2023-03-30T10:32:50;15.10;99.90
20700;DHT22;10511;51.232;9.420;2023-03-30T10:35:20;15.20;99.90
20700;DHT22;10511;51.232;9.420;2023-03-30T10:37:49;15.20;99.90
20700;DHT22;10511;51.232;9.420;2023-03-30T10:40:19;15.20;99.90
20700;DHT22;10511;51.232;9.420;2023-03-30T10:42:51;15.10;99.90
20700;DHT22;10511;51.232;9.420;2023-03-30T10:45:26;15.00;99.90
20700;DHT22;10511;51.232;9.420;2023-03-30T10:48:05;14.90;99.90
20700;DHT22;10511;51.232;9.420;2023-03-30T10:50:41;14.90;99.90
20700;DHT22;10511;51.232;9.420;2023-03-30T10:53:22;14.80;99.90
20700;DHT22;10511;51.232;9.420;2023-03-30T10:55:56;14.70;99.90
20700;DHT22;10511;51.232;9.420;2023-03-30T10:58:37;14.60;99.90
20700;DHT22;10511;51.232;9.420;2023-03-30T11:01:13;14.60;99.90
20700;DHT22;10511;51.232;9.420;2023-03-30T11:03:45;14.40;99.90
20700;DHT22;10511;51.232;9.420;2023-03-30T11:06:16;14.40;99.90
20700;DHT22;10511;51.232;9.420;2023-03-30T11:08:46;14.40;99.90
20700;DHT22;10511;51.232;9.420;2023-03-30T11:11:17;14.50;99.90
20700;DHT22;10511;51.232;9.420;2023-03-30T11:13:49;14.50;99.90
20700;DHT22;10511;51.232;9.420;2023-03-30T11:16:21;14.50;99.90
20700;DHT22;10511;51.232;9.420;2023-03-30T11:18:53;14.40;99.90
20700;DHT22;10511;51.232;9.420;2023-03-30T11:21:25;14.20;99.90
20700;DHT22;10511;51.232;9.420;2023-03-30T11:23:56;12.60;99.90
20700;DHT22;10511;51.232;9.420;2023-03-30T11:26:33;12.10;99.90
20700;DHT22;10511;51.232;9.420;2023-03-30T11:29:22;12.20;99.90
20700;DHT22;10511;51.232;9.420;2023-03-30T11:32:06;12.50;99.90
20700;DHT22;10511;51.232;9.420;2023-03-30T11:34:46;12.70;99.90
20700;DHT22;10511;51.232;9.420;2023-03-30T11:37:18;12.70;99.90
20700;DHT22;10511;51.232;9.420;2023-03-30T11:39:51;12.80;99.90
20700;DHT22;10511;51.232;9.420;2023-03-30T11:42:23;12.60;99.90
20700;DHT22;10511;51.232;9.420;2023-03-30T11:44:52;12.40;99.90
20700;DHT22;10511;51.232;9.420;2023-03-30T11:47:39;12.30;99.90
20700;DHT22;10511;51.232;9.420;2023-03-30T11:50:23;12.20;99.90
20700;DHT22;10511;51.232;9.420;2023-03-30T11:52:58;12.20;99.90
20700;DHT22;10511;51.232;9.420;2023-03-30T11:55:45;12.10;99.90
20700;DHT22;10511;51.232;9.420;2023-03-30T11:58:22;12.00;99.90
20700;DHT22;10511;51.232;9.420;2023-03-30T12:01:14;11.90;99.90
20700;DHT22;10511;51.232;9.420;2023-03-30T12:03:46;11.90;99.90
20700;DHT22;10511;51.232;9.420;2023-03-30T12:06:26;12.10;99.90
20700;DHT22;10511;51.232;9.420;2023-03-30T12:09:19;12.10;99.90
20700;DHT22;10511;51.232;9.420;2023-03-30T12:11:50;11.90;99.90
20700;DHT22;10511;51.232;9.420;2023-03-30T12:14:45;11.80;99.90
20700;DHT22;10511;51.232;9.420;2023-03-30T12:17:25;11.70;99.90
20700;DHT22;10511;51.232;9.420;2023-03-30T12:19:58;11.70;99.90
20700;DHT22;10511;51.232;9.420;2023-03-30T12:22:32;11.80;99.90
20700;DHT22;10511;51.232;9.420;2023-03-30T12:25:11;11.90;99.90
20700;DHT22;10511;51.232;9.420;2023-03-30T12:27:51;11.90;99.90
20700;DHT22;10511;51.232;9.420;2023-03-30T12:30:24;11.90;99.90
20700;DHT22;10511;51.232;9.420;2023-03-30T12:33:10;12.00;99.90
20700;DHT22;10511;51.232;9.420;2023-03-30T12:38:35;12.20;99.90
20700;DHT22;10511;51.232;9.420;2023-03-30T12:41:14;12.40;99.90
20700;DHT22;10511;51.232;9.420;2023-03-30T12:46:50;12.70;99.90
20700;DHT22;10511;51.232;9.420;2023-03-30T12:49:32;12.60;99.90
20700;DHT22;10511;51.232;9.420;2023-03-30T12:52:06;12.60;99.90
20700;DHT22;10511;51.232;9.420;2023-03-30T12:54:58;12.50;99.90
20700;DHT22;10511;51.232;9.420;2023-03-30T12:57:35;12.60;99.90
20700;DHT22;10511;51.232;9.420;2023-03-30T13:05:59;13.60;99.90
20700;DHT22;10511;51.232;9.420;2023-03-30T13:08:31;13.60;99.90
20700;DHT22;10511;51.232;9.420;2023-03-30T13:11:07;13.80;99.90
20700;DHT22;10511;51.232;9.420;2023-03-30T13:13:55;13.90;99.90
20700;DHT22;10511;51.232;9.420;2023-03-30T13:16:45;14.10;99.90
20700;DHT22;10511;51.232;9.420;2023-03-30T13:19:19;13.80;99.90
20700;DHT22;10511;51.232;9.420;2023-03-30T13:21:53;13.70;99.90
20700;DHT22;10511;51.232;9.420;2023-03-30T13:24:25;13.80;99.90
20700;DHT22;10511;51.232;9.420;2023-03-30T13:26:53;13.80;99.90
20700;DHT22;10511;51.232;9.420;2023-03-30T13:29:36;13.60;99.90
20700;DHT22;10511;51.232;9.420;2023-03-30T13:32:13;13.70;99.90
20700;DHT22;10511;51.232;9.420;2023-03-30T13:35:00;13.60;99.90
20700;DHT22;10511;51.232;9.420;2023-03-30T13:37:42;13.70;99.90
20700;DHT22;10511;51.232;9.420;2023-03-30T13:40:16;13.80;99.90
20700;DHT22;10511;51.232;9.420;2023-03-30T13:42:51;13.80;99.90
20700;DHT22;10511;51.232;9.420;2023-03-30T13:45:31;13.70;99.90
20700;DHT22;10511;51.232;9.420;2023-03-30T13:48:10;13.70;99.90
20700;DHT22;10511;51.232;9.420;2023-03-30T13:50:38;13.70;99.90
20700;DHT22;10511;51.232;9.420;2023-03-30T13:53:14;13.70;99.90
20700;DHT22;10511;51.232;9.420;2023-03-30T13:55:43;13.80;99.90
20700;DHT22;10511;51.232;9.420;2023-03-30T13:58:15;13.80;99.90
20700;DHT22;10511;51.232;9.420;2023-03-30T14:00:44;13.90;99.90
20700;DHT22;10511;51.232;9.420;2023-03-30T14:03:32;13.90;99.90
20700;DHT22;10511;51.232;9.420;2023-03-30T14:06:00;14.20;99.90
20700;DHT22;10511;51.232;9.420;2023-03-30T14:08:31;14.20;99.90
20700;DHT22;10511;51.232;9.420;2023-03-30T14:11:01;14.20;99.90
20700;DHT22;10511;51.232;9.420;2023-03-30T14:13:29;14.30;99.90
20700;DHT22;10511;51.232;9.420;2023-03-30T14:15:56;14.50;99.90
20700;DHT22;10511;51.232;9.420;2023-03-30T14:18:24;14.30;99.90
20700;DHT22;10511;51.232;9.420;2023-03-30T14:20:54;14.20;99.90
20700;DHT22;10511;51.232;9.420;2023-03-30T14:23:30;14.20;99.90
20700;DHT22;10511;51.232;9.420;2023-03-30T14:26:01;14.20;99.90
20700;DHT22;10511;51.232;9.420;2023-03-30T14:28:32;14.30;99.90
20700;DHT22;10511;51.232;9.420;2023-03-30T14:31:01;14.40;99.90
20700;DHT22;10511;51.232;9.420;2023-03-30T14:33:29;14.50;99.90
20700;DHT22;10511;51.232;9.420;2023-03-30T14:35:58;14.40;99.90
20700;DHT22;10511;51.232;9.420;2023-03-30T14:38:28;14.30;99.90
20700;DHT22;10511;51.232;9.420;2023-03-30T14:41:00;14.40;99.90
20700;DHT22;10511;51.232;9.420;2023-03-30T14:43:30;14.40;99.90
20700;DHT22;10511;51.232;9.420;2023-03-30T14:46:01;14.30;99.90
20700;DHT22;10511;51.232;9.420;2023-03-30T14:48:30;14.20;99.90
20700;DHT22;10511;51.232;9.420;2023-03-30T14:51:00;14.10;99.90
20700;DHT22;10511;51.232;9.420;2023-03-30T14:53:28;14.10;99.90
20700;DHT22;10511;51.232;9.420;2023-03-30T14:55:57;14.00;99.90
20700;DHT22;10511;51.232;9.420;2023-03-30T14:58:29;13.90;99.90
20700;DHT22;10511;51.232;9.420;2023-03-30T15:00:58;13.90;99.90
20700;DHT22;10511;51.232;9.420;2023-03-30T15:03:28;13.90;99.90
20700;DHT22;10511;51.232;9.420;2023-03-30T15:05:58;13.80;99.90
20700;DHT22;10511;51.232;9.420;2023-03-30T15:08:27;13.60;99.90
20700;DHT22;10511;51.232;9.420;2023-03-30T15:10:57;13.60;99.90
20700;DHT22;10511;51.232;9.420;2023-03-30T15:13:32;13.70;99.90
20700;DHT22;10511;51.232;9.420;2023-03-30T15:16:01;13.60;99.90
20700;DHT22;10511;51.232;9.420;2023-03-30T15:18:30;13.60;99.90
20700;DHT22;10511;51.232;9.420;2023-03-30T15:20:58;13.60;99.90
20700;DHT22;10511;51.232;9.420;2023-03-30T15:23:30;13.60;99.90
20700;DHT22;10511;51.232;9.420;2023-03-30T15:26:00;13.70;99.90
20700;DHT22;10511;51.232;9.420;2023-03-30T15:28:32;13.70;99.90
20700;DHT22;10511;51.232;9.420;2023-03-30T15:31:00;13.70;99.90
20700;DHT22;10511;51.232;9.420;2023-03-30T15:33:31;13.80;99.90
20700;DHT22;10511;51.232;9.420;2023-03-30T15:36:05;13.80;99.90
20700;DHT22;10511;51.232;9.420;2023-03-30T15:38:34;13.80;99.90
20700;DHT22;10511;51.232;9.420;2023-03-30T15:41:01;13.80;99.90
20700;DHT22;10511;51.232;9.420;2023-03-30T15:43:30;13.70;99.90
20700;DHT22;10511;51.232;9.420;2023-03-30T15:46:05;13.70;99.90
20700;DHT22;10511;51.232;9.420;2023-03-30T15:48:35;13.70;99.90
20700;DHT22;10511;51.232;9.420;2023-03-30T15:51:07;13.60;99.90
20700;DHT22;10511;51.232;9.420;2023-03-30T15:53:39;13.60;99.90
20700;DHT22;10511;51.232;9.420;2023-03-30T15:56:12;13.60;99.90
20700;DHT22;10511;51.232;9.420;2023-03-30T15:58:45;13.60;99.90
20700;DHT22;10511;51.232;9.420;2023-03-30T16:01:12;13.70;99.90
20700;DHT22;10511;51.232;9.420;2023-03-30T16:03:48;13.80;99.90
20700;DHT22;10511;51.232;9.420;2023-03-30T16:06:16;13.90;99.90
20700;DHT22;10511;51.232;9.420;2023-03-30T16:08:45;13.90;99.90
20700;DHT22;10511;51.232;9.420;2023-03-30T16:11:13;13.90;99.90